createdAt,value
2023-03-27T00:02:11.726Z,91.30
2023-03-27T00:07:13.714Z,91.40
2023-03-27T00:12:15.526Z,91.40
2023-03-27T00:17:17.394Z,91.40
2023-03-27T00:22:19.647Z,91.50
2023-03-27T00:27:21.438Z,91.50
2023-03-27T00:32:23.240Z,91.50
2023-03-27T00:37:25.152Z,91.50
2023-03-27T00:42:27.156Z,91.50
2023-03-27T00:47:33.258Z,91.50
2023-03-27T00:52:37.057Z,91.40
2023-03-27T00:57:39.227Z,91.50
2023-03-27T01:02:44.113Z,91.50
2023-03-27T01:08:00.489Z,91.60
2023-03-27T01:13:21.854Z,91.50
2023-03-27T01:18:48.543Z,91.60
2023-03-27T01:24:00.772Z,91.60
2023-03-27T01:29:27.424Z,91.60
2023-03-27T01:35:01.305Z,91.60
2023-03-27T01:40:25.642Z,91.60
2023-03-27T01:46:06.508Z,91.70
2023-03-27T01:51:36.472Z,91.70
2023-03-27T01:56:51.654Z,91.90
2023-03-27T02:02:11.838Z,91.70
2023-03-27T02:07:19.446Z,91.70
2023-03-27T02:12:34.873Z,91.70
2023-03-27T02:17:43.220Z,91.70
2023-03-27T02:22:50.886Z,92.00
2023-03-27T02:28:06.680Z,91.70
2023-03-27T02:33:17.717Z,91.80
2023-03-27T02:38:41.905Z,91.80
2023-03-27T02:44:00.838Z,91.80
2023-03-27T02:49:29.901Z,91.90
2023-03-27T02:54:40.710Z,92.20
2023-03-27T02:59:49.342Z,92.00
2023-03-27T03:05:17.944Z,92.00
2023-03-27T03:10:21.235Z,92.00
2023-03-27T03:15:23.024Z,92.00
2023-03-27T03:20:24.881Z,92.10
2023-03-27T03:25:26.863Z,92.10
2023-03-27T03:30:30.408Z,92.10
2023-03-27T03:35:50.745Z,92.20
2023-03-27T03:41:03.015Z,92.20
2023-03-27T03:46:05.620Z,92.20
2023-03-27T03:51:07.533Z,92.20
2023-03-27T03:56:09.516Z,92.30
2023-03-27T04:01:11.517Z,92.30
2023-03-27T04:06:25.547Z,92.30
2023-03-27T04:11:33.693Z,92.50
2023-03-27T04:16:47.065Z,92.30
2023-03-27T04:21:58.084Z,92.30
2023-03-27T04:27:06.471Z,92.30
2023-03-27T04:32:43.865Z,92.30
2023-03-27T04:38:26.274Z,91.90
2023-03-27T04:43:30.870Z,92.40
2023-03-27T04:48:33.585Z,92.40
2023-03-27T04:53:45.428Z,92.50
2023-03-27T04:58:48.128Z,92.50
2023-03-27T05:03:52.654Z,92.00
2023-03-27T05:09:16.735Z,92.00
2023-03-27T05:14:23.399Z,92.00
2023-03-27T05:19:26.875Z,92.50
2023-03-27T05:24:36.286Z,92.50
2023-03-27T05:29:47.233Z,92.50
2023-03-27T05:34:54.675Z,92.50
2023-03-27T05:39:58.092Z,92.50
2023-03-27T05:45:00.233Z,92.50
2023-03-27T05:50:03.164Z,92.50
2023-03-27T05:55:06.620Z,92.50
2023-03-27T06:00:14.035Z,92.50
2023-03-27T06:05:18.269Z,92.50
2023-03-27T06:10:24.726Z,92.50
2023-03-27T06:15:59.837Z,92.60
2023-03-27T06:21:17.308Z,92.50
2023-03-27T06:26:19.886Z,92.10
2023-03-27T06:31:22.157Z,92.00
2023-03-27T06:36:32.469Z,92.40
2023-03-27T06:41:35.772Z,92.30
2023-03-27T06:46:56.320Z,92.20
2023-03-27T06:52:27.378Z,92.20
2023-03-27T06:57:41.646Z,92.10
2023-03-27T07:02:44.612Z,92.10
2023-03-27T07:13:23.297Z,91.70
2023-03-27T07:18:25.312Z,91.60
2023-03-27T07:23:29.166Z,91.50
2023-03-27T07:28:44.594Z,91.30
2023-03-27T07:33:49.579Z,91.20
2023-03-27T07:38:53.818Z,91.10
2023-03-27T07:44:00.702Z,91.00
2023-03-27T07:49:11.131Z,91.00
2023-03-27T07:54:17.074Z,91.00
2023-03-27T07:59:24.510Z,91.00
2023-03-27T08:04:28.248Z,90.90
2023-03-27T08:09:41.405Z,90.80
2023-03-27T08:14:45.695Z,90.70
2023-03-27T08:19:54.520Z,90.80
2023-03-27T08:24:57.149Z,90.60
2023-03-27T08:30:01.412Z,90.60
2023-03-27T08:35:04.128Z,90.50
2023-03-27T08:40:13.281Z,90.40
2023-03-27T08:45:26.382Z,90.40
2023-03-27T08:50:46.570Z,90.30
2023-03-27T08:55:51.399Z,90.30
2023-03-27T09:01:33.620Z,90.80
2023-03-27T09:06:50.738Z,91.10
2023-03-27T09:12:03.039Z,91.40
2023-03-27T09:17:18.925Z,91.10
2023-03-27T09:22:31.280Z,90.80
2023-03-27T09:27:53.111Z,90.60
2023-03-27T09:33:18.113Z,90.30
2023-03-27T09:38:28.362Z,90.10
2023-03-27T09:44:03.639Z,90.10
2023-03-27T09:49:12.653Z,90.00
2023-03-27T09:54:22.359Z,90.10
2023-03-27T09:59:33.059Z,90.00
2023-03-27T10:05:00.007Z,90.00
2023-03-27T10:10:17.563Z,89.90
2023-03-27T10:15:45.719Z,89.90
2023-03-27T10:20:59.947Z,89.70
2023-03-27T10:26:11.116Z,89.60
2023-03-27T10:31:30.629Z,89.70
2023-03-27T10:36:55.201Z,89.60
2023-03-27T10:42:06.347Z,89.30
2023-03-27T10:47:22.534Z,89.10
2023-03-27T10:52:51.330Z,89.20
2023-03-27T10:58:22.020Z,89.20
2023-03-27T11:03:48.741Z,89.10
2023-03-27T11:09:16.142Z,89.40
2023-03-27T11:14:53.228Z,88.50
2023-03-27T11:20:07.395Z,88.10
2023-03-27T11:25:52.847Z,89.70
2023-03-27T11:31:18.698Z,89.00
2023-03-27T11:36:40.167Z,88.50
2023-03-27T11:42:01.445Z,88.30
2023-03-27T11:47:09.569Z,88.30
2023-03-27T11:52:37.825Z,88.30
2023-03-27T11:57:50.535Z,88.60
2023-03-27T12:03:19.841Z,87.90
2023-03-27T12:08:51.511Z,88.30
2023-03-27T12:14:18.560Z,87.80
2023-03-27T12:20:04.778Z,87.50
2023-03-27T12:25:47.187Z,87.30
2023-03-27T12:31:24.731Z,87.30
2023-03-27T12:36:30.974Z,88.00
2023-03-27T12:41:43.097Z,88.00
2023-03-27T12:47:22.918Z,88.00
2023-03-27T12:52:30.303Z,87.90
2023-03-27T12:57:53.526Z,87.90
2023-03-27T13:03:53.493Z,87.90
2023-03-27T13:09:08.437Z,87.90
2023-03-27T13:14:20.100Z,88.00
2023-03-27T13:19:49.333Z,87.80
2023-03-27T13:25:15.964Z,87.50
2023-03-27T13:30:42.198Z,87.10
2023-03-27T13:36:02.720Z,86.60
2023-03-27T13:41:44.341Z,86.90
2023-03-27T13:47:13.592Z,87.20
2023-03-27T13:52:54.523Z,87.40
2023-03-27T13:58:34.556Z,87.20
2023-03-27T14:03:57.875Z,87.60
2023-03-27T14:09:36.555Z,87.30
2023-03-27T14:15:17.026Z,87.00
2023-03-27T14:20:31.028Z,86.90
2023-03-27T14:25:43.781Z,86.10
2023-03-27T14:31:07.203Z,85.60
2023-03-27T14:36:47.540Z,85.50
2023-03-27T14:42:02.242Z,85.50
2023-03-27T14:47:12.916Z,85.60
2023-03-27T14:52:25.004Z,85.30
2023-03-27T14:57:51.280Z,84.80
2023-03-27T15:02:54.950Z,84.60
2023-03-27T15:07:57.053Z,84.30
2023-03-27T15:13:17.643Z,84.50
2023-03-27T15:18:33.422Z,84.80
2023-03-27T15:23:50.055Z,85.00
2023-03-27T15:29:04.004Z,85.00
2023-03-27T15:34:34.180Z,85.20
2023-03-27T15:39:54.851Z,85.40
2023-03-27T15:45:04.773Z,85.40
2023-03-27T15:50:23.940Z,85.40
2023-03-27T15:55:43.949Z,85.20
2023-03-27T16:00:48.579Z,85.00
2023-03-27T16:05:53.786Z,84.90
2023-03-27T16:10:56.047Z,84.70
2023-03-27T16:16:23.023Z,84.60
2023-03-27T16:21:27.643Z,84.10
2023-03-27T16:26:31.741Z,83.70
2023-03-27T16:31:33.624Z,83.50
2023-03-27T16:36:36.256Z,83.20
2023-03-27T16:41:38.107Z,82.80
2023-03-27T16:46:40.263Z,82.40
2023-03-27T16:51:43.510Z,82.10
2023-03-27T16:56:45.419Z,81.90
2023-03-27T17:01:48.166Z,81.70
2023-03-27T17:06:50.728Z,81.70
2023-03-27T17:11:52.601Z,81.80
2023-03-27T17:16:54.567Z,81.50
2023-03-27T17:21:56.384Z,81.50
2023-03-27T17:26:58.225Z,81.50
2023-03-27T17:32:02.066Z,81.40
2023-03-27T17:37:03.923Z,81.10
2023-03-27T17:42:06.721Z,81.00
2023-03-27T17:47:08.774Z,81.00
2023-03-27T17:52:12.276Z,81.00
2023-03-27T17:57:14.912Z,80.80
2023-03-27T18:02:19.287Z,80.70
2023-03-27T18:07:22.811Z,80.70
2023-03-27T18:12:27.205Z,80.40
2023-03-27T18:17:29.209Z,79.90
2023-03-27T18:22:31.041Z,80.60
2023-03-27T18:27:33.104Z,80.90
2023-03-27T18:32:35.084Z,80.90
2023-03-27T18:37:36.961Z,80.80
2023-03-27T18:42:40.664Z,80.80
2023-03-27T18:47:44.125Z,80.90
2023-03-27T18:52:46.075Z,80.80
2023-03-27T18:57:47.925Z,80.90
2023-03-27T19:02:49.817Z,80.80
2023-03-27T19:07:53.544Z,80.80
2023-03-27T19:12:55.489Z,80.90
2023-03-27T19:18:16.246Z,80.80
2023-03-27T19:23:36.773Z,80.80
2023-03-27T19:28:40.357Z,80.70
2023-03-27T19:33:45.719Z,80.50
2023-03-27T19:38:51.242Z,80.60
2023-03-27T19:44:03.560Z,80.60
2023-03-27T19:49:08.476Z,81.40
2023-03-27T19:54:42.056Z,80.60
2023-03-27T19:59:43.988Z,80.80
2023-03-27T20:04:45.817Z,81.00
2023-03-27T20:09:47.674Z,81.20
2023-03-27T20:15:02.336Z,81.20
2023-03-27T20:20:12.186Z,81.30
2023-03-27T20:25:14.790Z,81.30
2023-03-27T20:30:17.361Z,81.30
2023-03-27T20:35:24.246Z,81.50
2023-03-27T20:40:26.972Z,81.50
2023-03-27T20:45:30.900Z,81.60
2023-03-27T20:50:35.811Z,81.70
2023-03-27T21:00:43.720Z,81.60
2023-03-27T21:05:45.718Z,81.70
2023-03-27T21:10:54.002Z,81.90
2023-03-27T21:15:56.141Z,82.20
2023-03-27T21:20:58.068Z,82.20
2023-03-27T21:26:00.451Z,82.30
2023-03-27T21:31:07.035Z,82.30
2023-03-27T21:36:09.982Z,82.50
2023-03-27T21:41:16.485Z,82.60
2023-03-27T21:46:18.446Z,82.70
2023-03-27T21:51:20.467Z,82.50
2023-03-27T21:56:22.229Z,82.80
2023-03-27T22:01:24.668Z,82.80
2023-03-27T22:06:28.745Z,82.80
2023-03-27T22:11:30.764Z,82.90
2023-03-27T22:16:32.613Z,82.90
2023-03-27T22:21:34.622Z,83.10
2023-03-27T22:26:39.014Z,83.00
2023-03-27T22:31:41.045Z,83.10
2023-03-27T22:36:43.042Z,83.00
2023-03-27T22:41:44.998Z,83.10
2023-03-27T22:46:47.068Z,83.00
2023-03-27T22:51:49.014Z,83.00
2023-03-27T22:56:50.897Z,83.00
2023-03-27T23:01:52.926Z,83.10
2023-03-27T23:06:55.037Z,83.00
2023-03-27T23:11:56.871Z,83.00
2023-03-27T23:16:58.982Z,83.00
2023-03-27T23:22:00.881Z,83.00
2023-03-27T23:27:04.934Z,82.90
2023-03-27T23:32:07.025Z,83.10
2023-03-27T23:37:08.970Z,83.00
2023-03-27T23:42:10.836Z,83.00
2023-03-27T23:47:12.742Z,83.00
2023-03-27T23:52:14.775Z,83.00
2023-03-27T23:57:16.696Z,83.10
